createdAt,value
2022-08-30T00:02:20.475Z,100936.47
2022-08-30T00:04:48.299Z,100926.84
2022-08-30T00:07:17.351Z,100932.69
2022-08-30T00:09:45.081Z,100934.53
2022-08-30T00:12:12.842Z,100930.13
2022-08-30T00:14:40.571Z,100931.09
2022-08-30T00:17:08.327Z,100939.28
2022-08-30T00:19:36.075Z,100939.03
2022-08-30T00:22:03.878Z,100935.63
2022-08-30T00:24:33.832Z,100934.03
2022-08-30T00:27:01.560Z,100933.41
2022-08-30T00:29:29.298Z,100928.78
2022-08-30T00:31:57.025Z,100922.78
2022-08-30T00:34:24.771Z,100921.91
2022-08-30T00:36:52.484Z,100927.53
2022-08-30T00:39:20.212Z,100922.66
2022-08-30T00:41:49.403Z,100927.78
2022-08-30T00:44:17.139Z,100929.72
2022-08-30T00:46:44.922Z,100929.72
2022-08-30T00:49:12.829Z,100931.69
2022-08-30T00:51:40.854Z,100879.78
2022-08-30T00:54:08.614Z,100924.47
2022-08-30T00:56:36.364Z,100913.63
2022-08-30T00:59:06.021Z,100893.22
2022-08-30T01:01:34.357Z,100930.97
2022-08-30T01:04:02.507Z,100924.72
2022-08-30T01:06:32.422Z,100922.16
2022-08-30T01:09:00.593Z,100875.50
2022-08-30T01:11:28.340Z,100857.56
2022-08-30T01:13:56.179Z,100933.03
2022-08-30T01:16:27.330Z,100927.66
2022-08-30T01:18:57.955Z,100928.53
2022-08-30T01:21:28.533Z,100929.50
2022-08-30T01:24:00.460Z,100931.34
2022-08-30T01:26:28.847Z,100932.31
2022-08-30T01:28:58.061Z,100931.44
2022-08-30T01:31:25.847Z,100934.25
2022-08-30T01:33:53.635Z,100934.38
2022-08-30T01:36:21.875Z,100938.78
2022-08-30T01:38:50.898Z,100936.22
2022-08-30T01:41:21.302Z,100880.00
2022-08-30T01:43:49.190Z,100940.00
2022-08-30T01:46:17.904Z,100907.38
2022-08-30T01:48:51.978Z,100936.56
2022-08-30T01:51:22.122Z,100934.00
2022-08-30T01:53:49.860Z,100930.34
2022-08-30T01:56:17.600Z,100931.44
2022-08-30T01:58:46.811Z,100941.22
2022-08-30T02:01:15.982Z,100879.75
2022-08-30T02:03:45.222Z,100940.47
2022-08-30T02:06:14.250Z,100932.66
2022-08-30T02:08:42.176Z,100875.47
2022-08-30T02:11:10.253Z,100925.72
2022-08-30T02:13:38.580Z,100936.47
2022-08-30T02:16:08.883Z,100923.97
2022-08-30T02:18:37.288Z,100923.16
2022-08-30T02:21:05.090Z,100922.28
2022-08-30T02:23:32.856Z,100919.59
2022-08-30T02:26:01.387Z,100923.25
2022-08-30T02:28:29.173Z,100867.78
2022-08-30T02:30:56.940Z,100930.56
2022-08-30T02:33:26.022Z,100942.31
2022-08-30T02:35:53.991Z,100929.00
2022-08-30T02:38:21.697Z,100934.38
2022-08-30T02:40:49.420Z,100923.13
2022-08-30T02:43:17.268Z,100936.31
2022-08-30T02:45:45.133Z,100933.63
2022-08-30T02:48:12.883Z,100931.94
2022-08-30T02:50:42.412Z,100929.25
2022-08-30T02:53:10.149Z,100932.03
2022-08-30T02:55:41.914Z,100924.94
2022-08-30T02:58:10.599Z,100931.19
2022-08-30T03:00:38.818Z,100936.78
2022-08-30T03:03:07.522Z,100924.00
2022-08-30T03:05:35.379Z,100926.78
2022-08-30T03:08:09.230Z,100929.59
2022-08-30T03:10:38.382Z,100924.47
2022-08-30T03:13:07.584Z,100927.97
2022-08-30T03:15:35.422Z,100932.41
2022-08-30T03:18:03.179Z,100928.84
2022-08-30T03:20:30.931Z,100929.72
2022-08-30T03:22:58.665Z,100922.50
2022-08-30T03:25:27.866Z,100930.66
2022-08-30T03:27:55.604Z,100927.97
2022-08-30T03:30:23.352Z,100935.31
2022-08-30T03:32:51.458Z,100932.75
2022-08-30T03:35:19.401Z,100925.41
2022-08-30T03:37:47.252Z,100922.97
2022-08-30T03:40:17.037Z,100922.13
2022-08-30T03:42:47.959Z,100918.59
2022-08-30T03:45:16.623Z,100904.88
2022-08-30T03:47:44.409Z,100902.72
2022-08-30T03:50:12.903Z,100911.38
2022-08-30T03:52:40.674Z,100914.31
2022-08-30T03:55:09.060Z,100873.31
2022-08-30T03:57:36.799Z,100920.75
2022-08-30T04:00:07.535Z,100921.63
2022-08-30T04:02:35.310Z,100913.81
2022-08-30T04:05:03.076Z,100924.66
2022-08-30T04:07:30.803Z,100922.63
2022-08-30T04:09:58.638Z,100931.75
2022-08-30T04:12:26.342Z,100933.09
2022-08-30T04:14:54.252Z,100940.78
2022-08-30T04:17:23.650Z,100938.22
2022-08-30T04:19:51.373Z,100935.66
2022-08-30T04:22:19.426Z,100868.25
2022-08-30T04:24:47.166Z,100936.50
2022-08-30T04:27:14.891Z,100935.53
2022-08-30T04:29:42.624Z,100944.69
2022-08-30T04:32:10.359Z,100931.59
2022-08-30T04:34:39.483Z,100943.03
2022-08-30T04:37:07.221Z,100937.91
2022-08-30T04:39:37.818Z,100937.78
2022-08-30T04:42:05.605Z,100934.25
2022-08-30T04:44:33.475Z,100896.13
2022-08-30T04:47:01.167Z,100943.38
2022-08-30T04:49:28.898Z,100919.34
2022-08-30T04:51:58.407Z,100941.44
2022-08-30T04:54:26.135Z,100943.28
2022-08-30T04:56:53.884Z,100955.97
2022-08-30T04:59:22.153Z,100929.91
2022-08-30T05:01:49.912Z,100951.56
2022-08-30T05:04:17.682Z,100953.31
2022-08-30T05:06:45.411Z,100958.91
2022-08-30T05:09:14.505Z,100968.88
2022-08-30T05:11:43.347Z,100973.38
2022-08-30T05:14:11.141Z,100974.50
2022-08-30T05:16:38.888Z,100969.88
2022-08-30T05:19:07.910Z,100973.28
2022-08-30T05:21:35.730Z,100972.44
2022-08-30T05:24:04.027Z,100974.38
2022-08-30T05:26:34.012Z,100978.03
2022-08-30T05:29:01.614Z,100977.28
2022-08-30T05:31:30.554Z,100929.34
2022-08-30T05:33:58.538Z,100922.03
2022-08-30T05:36:27.087Z,100978.16
2022-08-30T05:38:54.911Z,100972.03
2022-08-30T05:41:22.915Z,100983.66
2022-08-30T05:43:55.599Z,100977.28
2022-08-30T05:46:23.377Z,100980.97
2022-08-30T05:48:51.274Z,100981.91
2022-08-30T05:51:20.416Z,100942.78
2022-08-30T05:53:48.247Z,100954.69
2022-08-30T05:56:17.120Z,100904.84
2022-08-30T05:58:44.928Z,100988.97
2022-08-30T06:01:21.818Z,100980.22
2022-08-30T06:03:49.554Z,100990.16
2022-08-30T06:06:17.424Z,100926.94
2022-08-30T06:08:47.416Z,100984.47
2022-08-30T06:11:15.294Z,100941.50
2022-08-30T06:13:43.081Z,100995.31
2022-08-30T06:16:12.441Z,100957.16
2022-08-30T06:18:41.564Z,100998.97
2022-08-30T06:21:13.311Z,100985.78
2022-08-30T06:23:42.754Z,100993.59
2022-08-30T06:26:10.500Z,100996.72
2022-08-30T06:28:38.208Z,100996.31
2022-08-30T06:31:07.273Z,100961.84
2022-08-30T06:33:35.142Z,100995.28
2022-08-30T06:36:05.951Z,100996.03
2022-08-30T06:38:33.905Z,101005.91
2022-08-30T06:41:01.660Z,101001.47
2022-08-30T06:43:29.775Z,100998.06
2022-08-30T06:45:57.505Z,101005.69
2022-08-30T06:48:25.216Z,101010.63
2022-08-30T06:50:54.720Z,101012.31
2022-08-30T06:53:23.866Z,101011.03
2022-08-30T06:55:56.866Z,100910.97
2022-08-30T06:58:24.710Z,100986.59
2022-08-30T07:00:52.474Z,101016.19
2022-08-30T07:03:20.246Z,101004.25
2022-08-30T07:05:48.780Z,101011.34
2022-08-30T07:08:16.595Z,101008.16
2022-08-30T07:10:45.787Z,101003.63
2022-08-30T07:13:16.374Z,100913.09
2022-08-30T07:15:45.040Z,100960.22
2022-08-30T07:18:30.251Z,100983.78
2022-08-30T07:20:58.824Z,101016.25
2022-08-30T07:23:26.587Z,101012.19
2022-08-30T07:25:55.702Z,101017.53
2022-08-30T07:28:23.424Z,101020.88
2022-08-30T07:30:51.495Z,100988.31
2022-08-30T07:33:19.481Z,101028.03
2022-08-30T07:35:47.364Z,101031.03
2022-08-30T07:38:15.383Z,101028.03
2022-08-30T07:40:43.181Z,101028.34
2022-08-30T07:43:12.302Z,101029.56
2022-08-30T07:45:40.140Z,101024.94
2022-08-30T07:48:08.411Z,101035.13
2022-08-30T07:50:36.135Z,101032.25
2022-08-30T07:53:05.693Z,101021.84
2022-08-30T07:55:35.719Z,101031.25
2022-08-30T07:58:03.410Z,101028.59
2022-08-30T08:00:32.591Z,101031.94
2022-08-30T08:03:05.303Z,101035.75
2022-08-30T08:05:33.091Z,101028.91
2022-08-30T08:08:00.798Z,101037.41
2022-08-30T08:10:28.540Z,101032.66
2022-08-30T08:12:56.604Z,101037.53
2022-08-30T08:15:25.771Z,101036.22
2022-08-30T08:17:54.840Z,101036.09
2022-08-30T08:20:22.588Z,101039.88
2022-08-30T08:22:50.316Z,101046.25
2022-08-30T08:25:18.284Z,101040.28
2022-08-30T08:27:47.745Z,100982.94
2022-08-30T08:30:15.732Z,101039.16
2022-08-30T08:32:43.435Z,101043.13
2022-08-30T08:35:12.592Z,101025.34
2022-08-30T08:37:40.414Z,100995.59
2022-08-30T08:40:09.430Z,100984.56
2022-08-30T08:42:41.691Z,101030.25
2022-08-30T08:45:12.735Z,101028.34
2022-08-30T08:47:42.521Z,100989.06
2022-08-30T08:50:17.369Z,100992.09
2022-08-30T08:53:07.893Z,101034.34
2022-08-30T08:55:35.691Z,100976.41
2022-08-30T08:58:03.535Z,101033.47
2022-08-30T09:00:31.274Z,101036.28
2022-08-30T09:03:00.351Z,101027.69
2022-08-30T09:05:31.298Z,101020.25
2022-08-30T09:08:00.626Z,101004.84
2022-08-30T09:10:49.327Z,100989.50
2022-08-30T09:13:18.972Z,101024.84
2022-08-30T09:15:49.935Z,101033.13
2022-08-30T09:18:21.970Z,101029.13
2022-08-30T09:20:52.465Z,101035.84
2022-08-30T09:23:23.469Z,100948.28
2022-08-30T09:25:52.765Z,100959.81
2022-08-30T09:28:24.016Z,101021.72
2022-08-30T09:31:06.027Z,101031.03
2022-08-30T09:33:37.183Z,100909.78
2022-08-30T09:36:17.452Z,101024.03
2022-08-30T09:38:45.594Z,101012.00
2022-08-30T09:41:38.405Z,101029.31
2022-08-30T09:44:08.811Z,101016.88
2022-08-30T09:46:44.116Z,101024.38
2022-08-30T09:49:28.928Z,101025.84
2022-08-30T09:52:03.150Z,100968.84
2022-08-30T09:54:35.012Z,100957.97
2022-08-30T09:57:05.369Z,101011.84
2022-08-30T09:59:47.557Z,101024.91
2022-08-30T10:02:28.466Z,101009.44
2022-08-30T10:05:01.276Z,101003.81
2022-08-30T10:07:34.392Z,100942.78
2022-08-30T10:10:04.817Z,101012.16
2022-08-30T10:12:36.781Z,100967.91
2022-08-30T10:15:06.626Z,101004.72
2022-08-30T10:17:41.728Z,101001.94
2022-08-30T10:20:21.956Z,100928.69
2022-08-30T10:22:52.178Z,101005.72
2022-08-30T10:25:23.234Z,101000.22
2022-08-30T10:27:53.164Z,101009.63
2022-08-30T10:30:20.686Z,101002.19
2022-08-30T10:32:52.339Z,101007.09
2022-08-30T10:35:21.812Z,100954.66
2022-08-30T10:37:53.446Z,101004.31
2022-08-30T10:40:42.115Z,100994.41
2022-08-30T10:43:19.934Z,100949.06
2022-08-30T10:45:48.122Z,101010.31
2022-08-30T10:48:19.353Z,100999.44
2022-08-30T10:50:49.436Z,100950.75
2022-08-30T10:53:19.379Z,100994.88
2022-08-30T10:56:00.423Z,100947.81
2022-08-30T10:58:31.333Z,100975.69
2022-08-30T11:01:13.295Z,100991.59
2022-08-30T11:04:02.142Z,100770.91
2022-08-30T11:06:32.727Z,100994.03
2022-08-30T11:09:06.630Z,100988.66
2022-08-30T11:11:40.759Z,100991.09
2022-08-30T11:14:08.839Z,100991.84
2022-08-30T11:16:38.998Z,100986.47
2022-08-30T11:19:15.203Z,100987.09
2022-08-30T11:21:43.248Z,100980.34
2022-08-30T11:24:13.205Z,100926.81
2022-08-30T11:26:57.200Z,100944.66
2022-08-30T11:29:39.331Z,100930.22
2022-08-30T11:32:54.503Z,100934.16
2022-08-30T11:35:36.747Z,100983.53
2022-08-30T11:38:13.069Z,100994.88
2022-08-30T11:40:48.300Z,100964.47
2022-08-30T11:43:50.925Z,100977.53
2022-08-30T11:46:24.340Z,100916.91
2022-08-30T11:48:53.728Z,100892.47
2022-08-30T11:51:50.882Z,100918.16
2022-08-30T11:54:37.217Z,100971.53
2022-08-30T11:57:10.851Z,100965.03
2022-08-30T11:59:45.020Z,100971.97
2022-08-30T12:02:47.564Z,100967.59
2022-08-30T12:05:51.757Z,100970.03
2022-08-30T12:08:55.134Z,100962.94
2022-08-30T12:11:56.350Z,100969.03
2022-08-30T12:14:51.970Z,100968.91
2022-08-30T12:17:43.834Z,100888.19
2022-08-30T12:20:22.727Z,100959.03
2022-08-30T12:22:50.968Z,100954.38
2022-08-30T12:25:23.476Z,100891.09
2022-08-30T12:27:51.525Z,100958.75
2022-08-30T12:30:28.105Z,100889.66
2022-08-30T12:32:56.184Z,100951.31
2022-08-30T12:35:26.022Z,100894.16
2022-08-30T12:38:01.284Z,100956.56
2022-08-30T12:40:31.105Z,100888.28
2022-08-30T12:43:00.345Z,100920.41
2022-08-30T12:45:31.814Z,100946.41
2022-08-30T12:48:01.136Z,100942.88
2022-08-30T12:50:29.872Z,100936.50
2022-08-30T12:52:58.915Z,100935.38
2022-08-30T12:55:28.206Z,100871.63
2022-08-30T12:58:00.682Z,100923.53
2022-08-30T13:00:31.696Z,100926.94
2022-08-30T13:03:01.042Z,100915.78
2022-08-30T13:05:48.453Z,100916.63
2022-08-30T13:08:20.344Z,100901.25
2022-08-30T13:10:54.181Z,100914.56
2022-08-30T13:13:39.690Z,100899.06
2022-08-30T13:16:26.280Z,100907.06
2022-08-30T13:18:54.944Z,100852.38
2022-08-30T13:21:25.414Z,100905.97
2022-08-30T13:23:57.660Z,100913.91
2022-08-30T13:26:26.174Z,100885.78
2022-08-30T13:28:58.742Z,100905.31
2022-08-30T13:31:28.518Z,100901.50
2022-08-30T13:33:58.506Z,100816.41
2022-08-30T13:36:28.738Z,100818.84
2022-08-30T13:38:56.844Z,100898.16
2022-08-30T13:41:26.107Z,100898.88
2022-08-30T13:44:14.286Z,100905.72
2022-08-30T13:46:52.512Z,100888.38
2022-08-30T13:52:20.826Z,100763.03
2022-08-30T13:54:50.050Z,100887.19
2022-08-30T13:57:53.386Z,100895.56
2022-08-30T14:00:07.623Z,100898.00
2022-08-30T14:02:43.042Z,100886.13
2022-08-30T14:05:37.589Z,100889.41
2022-08-30T14:08:01.976Z,100880.25
2022-08-30T14:10:30.888Z,100883.63
2022-08-30T14:13:07.831Z,100889.75
2022-08-30T14:15:38.853Z,100885.81
2022-08-30T14:18:08.269Z,100885.53
2022-08-30T14:20:38.656Z,100843.59
2022-08-30T14:23:10.274Z,100883.97
2022-08-30T14:25:40.773Z,100840.97
2022-08-30T14:28:09.606Z,100881.72
2022-08-30T14:30:38.863Z,100878.84
2022-08-30T14:33:08.497Z,100876.16
2022-08-30T14:35:36.744Z,100877.53
2022-08-30T14:38:04.627Z,100873.09
2022-08-30T14:40:33.891Z,100882.50
2022-08-30T14:43:02.943Z,100867.56
2022-08-30T14:45:30.668Z,100873.69
2022-08-30T14:47:58.442Z,100868.31
2022-08-30T14:50:27.985Z,100865.75
2022-08-30T14:52:55.800Z,100863.31
2022-08-30T14:55:23.636Z,100865.47
2022-08-30T14:57:51.362Z,100859.69
2022-08-30T15:00:19.807Z,100866.94
2022-08-30T15:02:47.535Z,100863.13
2022-08-30T15:05:16.081Z,100869.81
2022-08-30T15:07:46.115Z,100785.22
2022-08-30T15:10:14.819Z,100864.13
2022-08-30T15:12:42.704Z,100860.59
2022-08-30T15:15:19.650Z,100859.72
2022-08-30T15:17:47.774Z,100863.88
2022-08-30T15:20:18.726Z,100859.63
2022-08-30T15:22:47.686Z,100863.59
2022-08-30T15:25:15.529Z,100783.47
2022-08-30T15:27:44.714Z,100860.19
2022-08-30T15:30:13.103Z,100862.47
2022-08-30T15:32:42.511Z,100858.63
2022-08-30T15:35:11.344Z,100851.53
2022-08-30T15:37:39.108Z,100846.56
2022-08-30T15:40:10.031Z,100845.31
2022-08-30T15:42:37.848Z,100848.84
2022-08-30T15:45:06.544Z,100845.84
2022-08-30T15:47:34.370Z,100842.88
2022-08-30T15:50:03.997Z,100850.25
2022-08-30T15:52:32.226Z,100841.16
2022-08-30T15:54:59.994Z,100836.59
2022-08-30T15:57:29.101Z,100836.31
2022-08-30T15:59:56.813Z,100832.88
2022-08-30T16:02:27.445Z,100833.75
2022-08-30T16:04:55.705Z,100836.31
2022-08-30T16:07:23.444Z,100828.19
2022-08-30T16:09:51.200Z,100832.31
2022-08-30T16:12:23.805Z,100823.22
2022-08-30T16:14:53.061Z,100820.66
2022-08-30T16:17:20.808Z,100815.81
2022-08-30T16:19:48.546Z,100801.34
2022-08-30T16:22:18.644Z,100808.72
2022-08-30T16:24:50.048Z,100808.41
2022-08-30T16:27:17.775Z,100807.56
2022-08-30T16:29:45.479Z,100802.72
2022-08-30T16:32:14.539Z,100808.56
2022-08-30T16:34:42.242Z,100804.03
2022-08-30T16:37:10.770Z,100801.16
2022-08-30T16:41:58.180Z,100803.59
2022-08-30T16:44:29.738Z,100808.69
2022-08-30T16:46:57.860Z,100805.53
2022-08-30T16:49:26.964Z,100791.88
2022-08-30T16:51:54.699Z,100732.28
2022-08-30T16:54:22.478Z,100794.44
2022-08-30T16:56:50.191Z,100794.28
2022-08-30T16:59:18.930Z,100792.56
2022-08-30T17:01:48.208Z,100794.44
2022-08-30T17:04:18.425Z,100784.75
2022-08-30T17:06:49.659Z,100785.63
2022-08-30T17:09:17.855Z,100713.38
2022-08-30T17:11:45.673Z,100794.44
2022-08-30T17:14:13.389Z,100793.44
2022-08-30T17:16:42.288Z,100787.88
2022-08-30T17:19:12.998Z,100798.13
2022-08-30T17:21:40.735Z,100803.97
2022-08-30T17:24:09.801Z,100800.25
2022-08-30T17:26:40.051Z,100809.06
2022-08-30T17:29:08.054Z,100812.06
2022-08-30T17:31:35.877Z,100815.75
2022-08-30T17:34:05.702Z,100814.34
2022-08-30T17:36:35.303Z,100735.41
2022-08-30T17:39:10.474Z,100752.72
2022-08-30T17:41:41.165Z,100812.94
2022-08-30T17:44:13.436Z,100815.22
2022-08-30T17:46:41.283Z,100818.06
2022-08-30T17:49:10.503Z,100822.06
2022-08-30T17:51:40.897Z,100824.34
2022-08-30T17:54:09.153Z,100831.34
2022-08-30T17:56:36.850Z,100836.44
2022-08-30T17:59:08.029Z,100836.88
2022-08-30T18:01:37.193Z,100828.66
2022-08-30T18:04:06.384Z,100839.63
2022-08-30T18:06:34.465Z,100842.59
2022-08-30T18:09:02.196Z,100847.44
2022-08-30T18:11:29.938Z,100841.41
2022-08-30T18:13:57.676Z,100848.25
2022-08-30T18:16:26.983Z,100851.22
2022-08-30T18:18:57.215Z,100856.19
2022-08-30T18:21:25.450Z,100844.25
2022-08-30T18:23:56.240Z,100855.94
2022-08-30T18:26:24.389Z,100864.44
2022-08-30T18:28:52.264Z,100860.00
2022-08-30T18:31:20.008Z,100863.16
2022-08-30T18:33:49.084Z,100861.88
2022-08-30T18:36:16.803Z,100868.13
2022-08-30T18:38:45.430Z,100865.56
2022-08-30T18:41:15.262Z,100866.84
2022-08-30T18:43:43.169Z,100856.75
2022-08-30T18:46:16.184Z,100800.13
2022-08-30T18:48:45.995Z,100852.47
2022-08-30T18:51:16.145Z,100866.22
2022-08-30T18:53:44.238Z,100816.03
2022-08-30T18:56:12.126Z,100856.13
2022-08-30T18:58:40.398Z,100865.22
2022-08-30T19:01:12.902Z,100870.84
2022-08-30T19:03:41.833Z,100870.13
2022-08-30T19:06:11.315Z,100880.38
2022-08-30T19:08:41.317Z,100879.63
2022-08-30T19:11:13.552Z,100886.16
2022-08-30T19:13:41.272Z,100892.66
2022-08-30T19:16:08.977Z,100895.63
2022-08-30T19:18:39.947Z,100897.50
2022-08-30T19:21:13.550Z,100904.00
2022-08-30T19:23:56.846Z,100896.31
2022-08-30T19:26:27.458Z,100894.47
2022-08-30T19:28:55.424Z,100896.44
2022-08-30T19:31:23.142Z,100902.84
2022-08-30T19:33:50.909Z,100905.69
2022-08-30T19:36:18.609Z,100905.94
2022-08-30T19:38:46.325Z,100819.25
2022-08-30T19:41:15.354Z,100910.59
2022-08-30T19:43:43.085Z,100916.13
2022-08-30T19:46:10.929Z,100918.13
2022-08-30T19:48:42.998Z,100916.41
2022-08-30T19:51:10.890Z,100841.53
2022-08-30T19:53:38.603Z,100813.38
2022-08-30T19:56:06.638Z,100914.38
2022-08-30T19:58:36.299Z,100916.25
2022-08-30T20:01:10.814Z,100913.69
2022-08-30T20:03:40.130Z,100913.81
2022-08-30T20:06:08.155Z,100921.03
2022-08-30T20:08:36.772Z,100915.03
2022-08-30T20:11:04.583Z,100924.13
2022-08-30T20:13:34.251Z,100926.81
2022-08-30T20:16:03.966Z,100923.41
2022-08-30T20:18:31.737Z,100925.38
2022-08-30T20:20:59.448Z,100923.66
2022-08-30T20:23:28.428Z,100921.81
2022-08-30T20:25:56.384Z,100923.78
2022-08-30T20:28:24.605Z,100921.22
2022-08-30T20:30:52.458Z,100924.91
2022-08-30T20:33:21.844Z,100934.97
2022-08-30T20:35:49.985Z,100927.25
2022-08-30T20:38:20.692Z,100867.34
2022-08-30T20:40:50.179Z,100933.50
2022-08-30T20:43:18.899Z,100937.19
2022-08-30T20:45:46.672Z,100926.53
2022-08-30T20:48:14.479Z,100931.19
2022-08-30T20:50:43.652Z,100914.00
2022-08-30T20:53:11.444Z,100866.41
2022-08-30T20:55:41.535Z,100850.78
2022-08-30T20:58:09.615Z,100923.38
2022-08-30T21:00:37.374Z,100936.84
2022-08-30T21:03:25.672Z,100936.13
2022-08-30T21:05:56.453Z,100872.06
2022-08-30T21:08:25.028Z,100928.44
2022-08-30T21:10:52.908Z,100928.44
2022-08-30T21:13:20.659Z,100941.91
2022-08-30T21:15:52.123Z,100934.81
2022-08-30T21:18:19.859Z,100943.03
2022-08-30T21:20:47.648Z,100951.22
2022-08-30T21:23:17.191Z,100956.63
2022-08-30T21:25:44.906Z,100895.50
2022-08-30T21:28:12.755Z,100970.34
2022-08-30T21:30:40.606Z,100966.78
2022-08-30T21:33:08.812Z,100976.72
2022-08-30T21:35:55.230Z,100978.56
2022-08-30T21:38:24.660Z,100974.41
2022-08-30T21:40:52.459Z,100964.16
2022-08-30T21:43:20.196Z,100978.69
2022-08-30T21:45:50.238Z,100977.81
2022-08-30T21:48:18.216Z,100973.56
2022-08-30T21:50:46.505Z,100975.38
2022-08-30T21:53:15.391Z,100978.06
2022-08-30T21:55:48.121Z,100967.44
2022-08-30T21:58:16.191Z,100967.56
2022-08-30T22:00:43.923Z,100963.16
2022-08-30T22:03:11.714Z,100950.69
2022-08-30T22:05:39.475Z,100952.53
2022-08-30T22:08:07.211Z,100967.00
2022-08-30T22:10:34.936Z,100967.00
2022-08-30T22:13:03.991Z,100967.13
2022-08-30T22:15:32.254Z,100961.88
2022-08-30T22:18:00.624Z,100968.22
2022-08-30T22:20:30.567Z,100975.47
2022-08-30T22:22:58.457Z,100969.19
2022-08-30T22:25:26.558Z,100974.59
2022-08-30T22:27:54.286Z,100976.53
2022-08-30T22:30:23.452Z,100987.31
2022-08-30T22:32:52.657Z,100994.69
2022-08-30T22:35:20.939Z,100988.69
2022-08-30T22:37:53.638Z,100980.75
2022-08-30T22:40:21.992Z,100982.44
2022-08-30T22:42:49.769Z,100982.56
2022-08-30T22:45:17.649Z,100984.44
2022-08-30T22:47:46.728Z,100985.38
2022-08-30T22:50:14.424Z,100988.06
2022-08-30T22:52:42.159Z,100883.91
2022-08-30T22:55:09.943Z,100992.50
2022-08-30T22:57:37.779Z,100981.00
2022-08-30T23:00:07.591Z,100987.25
2022-08-30T23:02:36.475Z,100982.25
2022-08-30T23:05:06.142Z,100986.16
2022-08-30T23:07:33.907Z,100993.84
2022-08-30T23:10:01.709Z,100993.00
2022-08-30T23:12:29.516Z,100990.31
2022-08-30T23:14:57.254Z,100989.84
2022-08-30T23:17:24.979Z,100997.66
2022-08-30T23:19:53.636Z,100940.94
2022-08-30T23:22:22.714Z,100998.66
2022-08-30T23:25:13.247Z,100996.09
2022-08-30T23:28:01.231Z,101004.28
2022-08-30T23:30:46.536Z,101002.56
2022-08-30T23:33:31.719Z,101012.34
2022-08-30T23:36:17.086Z,101006.97
2022-08-30T23:39:03.923Z,101008.06
2022-08-30T23:41:49.532Z,101011.75
2022-08-30T23:44:34.912Z,101008.19
2022-08-30T23:47:20.085Z,101004.66
2022-08-30T23:50:05.282Z,101006.59
2022-08-30T23:52:50.632Z,101007.47
2022-08-30T23:55:37.292Z,101006.69
2022-08-30T23:58:22.636Z,100999.75
